Prairie City, OR (97869)

1:01 PM PST on November 27, 2014 (GMT -0800)
SW Prairie City | Change Station
CLOSE
Current Station
Personal Weather Station
Location: Prairie City, OR
Elevation: 3547 ft
Nearby Weather Stations
Active Advisory: Special Statement Active Notice: Record Report

Elev 3547 ft 44.45 °N, 118.72 °W | Updated 1 minute ago

Overcast
Overcast
47.0 °F
Feels Like 44 °F
N
6.0
Wind Variable Wind from SW
Gusts 17.0 mph

Today
High -- | Low -- °F
--% Chance of Precip.
Yesterday
High -- | Low -- °F
Precip. -- in
7:06 AM 4:18 PM
Waxing Crescent, 33% visible
Pressure 30.08 in
Visibility 10.0 miles
Clouds Scattered Clouds 4900 ft
Overcast 6000 ft
Windchill 44 °F
Dew Point 41 °F
Humidity 78%
Rainfall 0.02 in
Snow Depth Not available.
UV 1 out of 12
Pollen .10 out of 12
Air Quality Not available.
Flu Activity Not available.
METAR KGCD 272035Z AUTO 21017G27KT 10SM SCT049 OVC060 11/05 A3008 RMK AO2 P0001 T01050046

More Conditions Fewer Conditions

Pressure 30.08 in
Visibility 10.0 miles
Clouds Scattered Clouds 4900 ft
Overcast 6000 ft
Windchill 44 °F
Dew Point 41 °F
Humidity 78%
Rainfall 0.02 in
Snow Depth Not available.
UV 1 out of 12
Pollen .10 out of 12
Air Quality Not available.
Flu Activity Not available.
METAR KGCD 272035Z AUTO 21017G27KT 10SM SCT049 OVC060 11/05 A3008 RMK AO2 P0001 T01050046

More Conditions Fewer Conditions

10-Day Weather Forecast

Almanac

Astronomy

Nov. 27, 2014 Rise Set
Actual Time
Civil Twilight
Nautical Twilight
Astronomical Twilight
Moon
Length of Visible Light
Length of Day
Tomorrow will be .
, % of the Moon is Illuminated

Today's Extremes

State Highs State Lows

Community

WunderPhotos

Upload Photos

1,774,104 photos uploaded!

WunderBlogs® & News

Nearby

Air Quality

  Air Quality AQ Index Pollutant
Not available.

Snow Depth

Station Depth Elevation

Earthquake Activity

City Distance Mag. Time & Date
Minimum magnitude displayed is 2.5.

Coastal Water Temperatures

Place Temperature

Nearby Weather Stations